Time;durP1;ratioP1;P1;durP2;ratioP2;P2;SDS_P1;SDS_P2;PMS_P1;PMS_P2;Temp;Humidity;BMP_temperature;BMP_pressure;BME280_temperature;BME280_humidity;BME280_pressure;Samples;Min_cycle;Max_cycle;Signal;HPM_P1;HPM_P2
2023/09/08 00:00:52;;;;;;;1.52;1.42;;;;;;;18.17;93.95;98732.84;4151330;28;20353;-83
2023/09/08 00:02:53;;;;;;;1.30;1.20;;;;;;;18.14;94.63;98736.22;4158297;28;20653;-83
2023/09/08 00:04:55;;;;;;;1.63;1.20;;;;;;;18.09;93.82;98730.72;4165455;28;20780;-84
2023/09/08 00:06:57;;;;;;;1.23;0.88;;;;;;;18.10;94.20;98729.59;4159089;28;20204;-84
2023/09/08 00:08:58;;;;;;;1.92;1.73;;;;;;;18.07;93.83;98730.19;4165661;28;20660;-83
2023/09/08 00:11:00;;;;;;;1.67;1.38;;;;;;;18.07;94.33;98724.66;4158612;28;20275;-83
2023/09/08 00:13:03;;;;;;;1.35;1.25;;;;;;;17.95;94.85;98730.59;4146325;28;20201;-83
2023/09/08 00:15:06;;;;;;;2.60;1.90;;;;;;;18.05;95.27;98738.81;4161070;28;20275;-83
2023/09/08 00:17:08;;;;;;;5.90;1.58;;;;;;;18.08;94.87;98731.84;4162233;28;20204;-83
2023/09/08 00:19:10;;;;;;;1.10;1.00;;;;;;;18.07;94.87;98727.44;4163227;28;20316;-84
2023/09/08 00:21:11;;;;;;;1.35;0.93;;;;;;;18.10;94.37;98724.06;4160522;28;20616;-84
2023/09/08 00:23:13;;;;;;;2.38;1.17;;;;;;;18.04;93.97;98715.00;4146414;28;20201;-83
2023/09/08 00:25:14;;;;;;;1.30;1.20;;;;;;;17.95;94.38;98714.00;4160944;28;20239;-83
2023/09/08 00:27:16;;;;;;;1.48;1.38;;;;;;;18.01;94.58;98720.28;4159106;28;20594;-84
2023/09/08 00:29:17;;;;;;;1.90;1.55;;;;;;;17.88;95.04;98718.22;4157734;28;20201;-83
2023/09/08 00:31:19;;;;;;;1.08;1.08;;;;;;;17.84;95.19;98717.16;4160800;28;20231;-83
2023/09/08 00:33:22;;;;;;;2.72;1.55;;;;;;;17.79;95.46;98725.50;4164200;28;20298;-84
2023/09/08 00:35:24;;;;;;;3.38;1.55;;;;;;;17.81;95.67;98728.81;4161989;28;20755;-83
2023/09/08 00:37:25;;;;;;;1.23;1.13;;;;;;;17.77;95.72;98724.94;4167473;28;20792;-83
2023/09/08 00:39:27;;;;;;;1.70;1.35;;;;;;;17.73;95.76;98724.72;4166963;28;20289;-83
2023/09/08 00:41:28;;;;;;;0.98;0.98;;;;;;;17.72;95.50;98722.25;4147206;28;20292;-84
2023/09/08 00:43:30;;;;;;;1.85;1.20;;;;;;;17.65;96.03;98716.22;4181181;28;20208;-83
2023/09/08 00:45:38;;;;;;;1.55;1.45;;;;;;;17.66;95.89;98720.66;4147832;28;20217;-84
2023/09/08 00:47:40;;;;;;;1.27;1.17;;;;;;;17.61;95.97;98726.22;4162252;28;20209;-83
2023/09/08 00:49:42;;;;;;;1.38;1.30;;;;;;;17.72;95.96;98725.03;4150865;28;20197;-83
2023/09/08 00:51:44;;;;;;;2.53;1.35;;;;;;;17.63;96.07;98723.97;4149951;28;20213;-83
2023/09/08 00:53:45;;;;;;;1.55;1.10;;;;;;;17.61;95.70;98715.16;4163141;28;20236;-84
2023/09/08 00:55:47;;;;;;;1.58;1.48;;;;;;;17.60;96.34;98719.84;4162831;28;20204;-83
2023/09/08 00:57:49;;;;;;;1.65;1.27;;;;;;;17.57;96.21;98714.91;4164803;28;20781;-84
2023/09/08 00:59:50;;;;;;;7.07;1.40;;;;;;;17.53;95.70;98721.31;4156866;28;20310;-83
2023/09/08 01:01:52;;;;;;;2.05;1.10;;;;;;;17.55;96.39;98716.31;4161314;28;20215;-83
2023/09/08 01:03:54;;;;;;;0.88;0.88;;;;;;;17.53;96.79;98724.09;4144466;28;20225;-83
2023/09/08 01:05:55;;;;;;;1.10;1.10;;;;;;;17.44;96.83;98725.81;4162872;28;20660;-84
2023/09/08 01:07:59;;;;;;;1.27;1.08;;;;;;;17.43;96.51;98718.63;4167518;28;20208;-84
2023/09/08 01:10:04;;;;;;;2.00;1.80;;;;;;;17.35;96.61;98719.22;4147943;28;20212;-83
2023/09/08 01:12:06;;;;;;;1.85;1.50;;;;;;;17.33;96.74;98721.44;4177859;28;20292;-83
2023/09/08 01:14:08;;;;;;;1.38;1.35;;;;;;;17.45;96.73;98725.50;4161385;28;20231;-84
2023/09/08 01:16:10;;;;;;;4.45;1.20;;;;;;;17.33;96.97;98726.97;4160864;28;20220;-83
2023/09/08 01:18:11;;;;;;;1.38;1.10;;;;;;;17.31;96.66;98721.72;4160666;28;20255;-83
2023/09/08 01:20:21;;;;;;;1.02;1.02;;;;;;;17.22;96.97;98722.63;4157725;28;20616;-83
2023/09/08 01:22:49;;;;;;;2.92;0.95;;;;;;;17.28;96.70;98733.38;4161246;28;20196;-84
2023/09/08 01:25:12;;;;;;;8.75;2.65;;;;;;;17.27;97.03;98725.38;4141014;28;20225;-83
2023/09/08 01:27:14;;;;;;;1.73;1.55;;;;;;;17.22;97.23;98728.16;4163355;28;20287;-83
2023/09/08 01:29:16;;;;;;;2.03;1.83;;;;;;;17.15;96.96;98727.66;4147000;28;20691;-84
2023/09/08 01:31:18;;;;;;;1.40;1.30;;;;;;;17.11;97.24;98729.34;4165204;28;20243;-84
2023/09/08 01:33:20;;;;;;;2.22;1.75;;;;;;;17.19;97.27;98729.56;4164389;28;20244;-85
2023/09/08 01:35:21;;;;;;;1.13;0.98;;;;;;;17.05;97.79;98722.22;4162369;28;20297;-85
2023/09/08 01:37:23;;;;;;;1.20;1.10;;;;;;;17.16;97.70;98729.31;4147314;28;20213;-84
2023/09/08 01:39:25;;;;;;;1.27;1.17;;;;;;;17.11;97.37;98729.34;4148932;28;20635;-83
2023/09/08 01:41:27;;;;;;;1.25;0.95;;;;;;;17.13;97.22;98729.91;4146743;28;20237;-83
2023/09/08 01:43:28;;;;;;;4.47;1.63;;;;;;;17.16;97.53;98724.63;4181841;28;20244;-83
2023/09/08 01:45:30;;;;;;;2.25;1.08;;;;;;;17.16;97.39;98729.31;4165845;28;20240;-84
2023/09/08 01:47:32;;;;;;;1.50;1.40;;;;;;;17.14;97.48;98724.09;4149386;28;20655;-83
2023/09/08 01:49:34;;;;;;;1.95;1.80;;;;;;;17.03;97.52;98729.94;4181930;28;20910;-84
2023/09/08 01:51:35;;;;;;;1.10;0.73;;;;;;;17.00;97.65;98714.75;4147039;28;20750;-84
2023/09/08 01:53:37;;;;;;;1.15;1.00;;;;;;;17.13;97.69;98727.13;4147097;28;20205;-84
2023/09/08 01:55:38;;;;;;;0.63;0.63;;;;;;;17.07;97.40;98719.97;4147520;28;20232;-84
2023/09/08 01:57:40;;;;;;;1.58;1.48;;;;;;;17.04;97.59;98723.28;4178865;28;20224;-85
2023/09/08 01:59:41;;;;;;;1.23;1.13;;;;;;;17.05;97.28;98724.97;4146893;28;20221;-85
2023/09/08 02:01:43;;;;;;;1.48;1.38;;;;;;;17.02;97.38;98721.97;4160344;28;20566;-84
2023/09/08 02:03:44;;;;;;;2.65;1.88;;;;;;;16.92;97.20;98722.84;4158992;28;20296;-84
2023/09/08 02:05:46;;;;;;;1.92;1.83;;;;;;;16.97;97.29;98724.75;4180944;28;20212;-85
2023/09/08 02:07:47;;;;;;;4.00;1.98;;;;;;;16.92;97.02;98722.84;4159476;28;20231;-84
2023/09/08 02:09:49;;;;;;;1.83;1.35;;;;;;;16.93;97.09;98719.78;4160063;28;20274;-84
2023/09/08 02:11:51;;;;;;;2.40;1.42;;;;;;;16.84;97.21;98723.41;4180472;28;20790;-84
2023/09/08 02:13:52;;;;;;;0.90;0.90;;;;;;;16.88;97.64;98721.75;4179675;28;20994;-84
2023/09/08 02:15:57;;;;;;;1.17;1.02;;;;;;;16.86;97.80;98726.75;4165409;28;20622;-84
2023/09/08 02:17:59;;;;;;;11.85;2.40;;;;;;;16.91;97.63;98723.97;4181359;28;20681;-85
2023/09/08 02:20:00;;;;;;;2.03;1.80;;;;;;;16.87;98.22;98720.09;4163333;28;20243;-84
2023/09/08 02:22:02;;;;;;;1.85;1.20;;;;;;;16.83;98.33;98721.78;4146674;28;20208;-83
2023/09/08 02:24:04;;;;;;;1.38;1.23;;;;;;;16.75;98.40;98722.38;4182983;28;20230;-84
2023/09/08 02:26:06;;;;;;;1.83;1.30;;;;;;;16.76;98.52;98718.50;4166222;28;20204;-84
2023/09/08 02:28:07;;;;;;;1.10;1.02;;;;;;;16.70;98.77;98725.16;4144265;28;20240;-84
2023/09/08 02:30:09;;;;;;;1.85;1.75;;;;;;;16.72;98.57;98720.19;4142780;28;20232;-84
2023/09/08 02:32:10;;;;;;;8.30;0.88;;;;;;;16.74;98.57;98720.72;4156813;28;20217;-84
2023/09/08 02:34:12;;;;;;;2.55;1.48;;;;;;;16.64;98.49;98720.75;4160394;28;20255;-84
2023/09/08 02:36:14;;;;;;;0.70;0.70;;;;;;;16.65;98.66;98722.44;4144237;28;20691;-84
2023/09/08 02:38:16;;;;;;;0.93;0.90;;;;;;;16.76;98.41;98724.03;4161283;28;20264;-84
2023/09/08 02:40:20;;;;;;;1.35;1.25;;;;;;;16.75;98.26;98725.13;4159456;28;20233;-83
2023/09/08 02:42:22;;;;;;;1.70;1.10;;;;;;;16.65;98.30;98727.13;4144333;28;20694;-84
2023/09/08 02:44:23;;;;;;;2.25;1.67;;;;;;;16.64;98.80;98726.28;4151694;28;20229;-84
2023/09/08 02:46:25;;;;;;;0.73;0.73;;;;;;;16.56;98.76;98726.88;4160989;28;20218;-84
2023/09/08 02:48:26;;;;;;;1.00;1.00;;;;;;;16.48;99.17;98733.00;4154404;28;20239;-84
2023/09/08 02:50:28;;;;;;;2.03;1.48;;;;;;;16.48;99.04;98721.97;4163711;28;20231;-84
2023/09/08 02:52:30;;;;;;;5.15;0.82;;;;;;;16.43;99.06;98724.72;4179565;28;20258;-84
2023/09/08 02:54:31;;;;;;;0.75;0.75;;;;;;;16.45;99.47;98722.53;4152310;28;20224;-83
2023/09/08 02:56:33;;;;;;;2.53;1.33;;;;;;;16.40;99.67;98733.59;4157390;28;20208;-83
2023/09/08 02:58:35;;;;;;;14.18;1.58;;;;;;;16.44;99.92;98725.56;4169310;28;20212;-83
2023/09/08 03:00:36;;;;;;;0.88;0.88;;;;;;;16.36;99.44;98728.91;4151009;28;20236;-84
2023/09/08 03:02:38;;;;;;;1.02;0.93;;;;;;;16.41;99.50;98726.97;4164132;28;20200;-84
2023/09/08 03:04:40;;;;;;;0.95;0.82;;;;;;;16.43;99.33;98715.63;4168579;28;20571;-85
2023/09/08 03:06:41;;;;;;;1.20;0.98;;;;;;;16.41;99.49;98732.47;4166611;28;20295;-84
2023/09/08 03:08:43;;;;;;;2.42;1.48;;;;;;;16.36;99.32;98729.69;4144390;28;20233;-83
2023/09/08 03:10:44;;;;;;;0.93;0.93;;;;;;;16.35;99.15;98728.06;4145726;28;20284;-83
2023/09/08 03:12:46;;;;;;;1.00;0.98;;;;;;;16.35;99.41;98727.25;4180778;28;20211;-83
2023/09/08 03:14:47;;;;;;;1.23;1.08;;;;;;;16.34;99.10;98729.16;4163903;28;20320;-84
2023/09/08 03:16:49;;;;;;;1.58;1.45;;;;;;;16.41;99.24;98735.25;4159084;28;20240;-84
2023/09/08 03:18:50;;;;;;;1.63;0.95;;;;;;;16.36;98.70;98729.69;4140123;28;20223;-83
2023/09/08 03:20:52;;;;;;;1.35;1.35;;;;;;;16.30;98.24;98736.34;4158724;28;20240;-83
2023/09/08 03:22:54;;;;;;;1.27;1.15;;;;;;;16.38;98.39;98729.47;4163369;28;20239;-83
2023/09/08 03:24:56;;;;;;;0.95;0.90;;;;;;;16.34;98.37;98731.94;4178280;28;20228;-84
2023/09/08 03:26:58;;;;;;;1.38;1.20;;;;;;;16.24;98.09;98731.94;4164718;28;20201;-84
2023/09/08 03:28:59;;;;;;;1.13;1.10;;;;;;;16.26;98.21;98739.97;4180327;28;20286;-84
2023/09/08 03:31:02;;;;;;;1.48;0.93;;;;;;;16.19;98.50;98733.91;4181961;28;20223;-84
2023/09/08 03:33:03;;;;;;;1.48;1.38;;;;;;;16.14;98.49;98737.50;4149893;28;20610;-83
2023/09/08 03:35:07;;;;;;;1.52;1.10;;;;;;;16.15;98.78;98736.41;4165053;28;20263;-84
2023/09/08 03:37:08;;;;;;;1.13;1.13;;;;;;;16.27;98.25;98738.84;4167946;28;20209;-84
2023/09/08 03:39:10;;;;;;;0.90;0.90;;;;;;;16.18;98.90;98737.78;4179359;28;20200;-83
2023/09/08 03:41:11;;;;;;;1.13;1.05;;;;;;;16.14;98.93;98734.75;4163268;28;20836;-84
2023/09/08 03:43:13;;;;;;;1.02;1.00;;;;;;;16.14;98.98;98734.75;4143193;28;20240;-83
2023/09/08 03:45:17;;;;;;;2.53;2.42;;;;;;;16.17;99.32;98736.94;4162196;28;20228;-84
2023/09/08 03:47:19;;;;;;;3.03;1.40;;;;;;;16.08;99.85;98738.63;4161152;28;20686;-84
2023/09/08 03:49:20;;;;;;;3.60;1.48;;;;;;;16.18;99.64;98727.56;4166338;28;20289;-84
2023/09/08 03:51:22;;;;;;;2.83;1.48;;;;;;;16.07;99.77;98731.47;4157209;28;20300;-82
2023/09/08 03:53:24;;;;;;;1.65;1.48;;;;;;;16.08;99.48;98730.34;4178649;28;20204;-84
2023/09/08 03:55:26;;;;;;;1.63;1.45;;;;;;;16.11;99.22;98724.28;4160918;28;20229;-83
2023/09/08 03:57:28;;;;;;;1.13;1.02;;;;;;;15.99;99.55;98728.44;4147722;28;20228;-83
2023/09/08 03:59:29;;;;;;;0.90;0.90;;;;;;;15.97;100.00;98736.19;4165221;28;20295;-84
2023/09/08 04:01:31;;;;;;;2.60;1.50;;;;;;;15.88;100.00;98733.16;4163182;28;20245;-83
2023/09/08 04:03:33;;;;;;;1.05;1.05;;;;;;;15.82;100.00;98728.75;4180764;28;20247;-82
2023/09/08 04:05:35;;;;;;;1.95;1.50;;;;;;;15.84;100.00;98723.75;4165686;28;20205;-84
2023/09/08 04:07:37;;;;;;;1.17;1.08;;;;;;;15.76;100.00;98734.56;4164027;28;20247;-84
2023/09/08 04:09:38;;;;;;;1.77;1.67;;;;;;;15.83;100.00;98722.13;4164438;28;20197;-84
2023/09/08 04:11:41;;;;;;;1.13;1.13;;;;;;;15.81;100.00;98724.34;4164252;28;20291;-83
2023/09/08 04:13:43;;;;;;;0.82;0.82;;;;;;;15.72;100.00;98734.28;4176546;28;20550;-84
2023/09/08 04:15:44;;;;;;;1.85;1.25;;;;;;;15.74;100.00;98737.59;4166012;28;20267;-83
2023/09/08 04:17:46;;;;;;;7.07;1.70;;;;;;;15.75;100.00;98739.25;4166767;28;20239;-84
2023/09/08 04:19:48;;;;;;;1.08;1.02;;;;;;;15.73;100.00;98740.63;4149158;28;20229;-84
2023/09/08 04:21:49;;;;;;;13.32;2.40;;;;;;;15.79;100.00;98732.06;4166690;28;20757;-84
2023/09/08 04:23:51;;;;;;;1.60;1.33;;;;;;;15.78;100.00;98738.72;4183900;28;20195;-84
2023/09/08 04:25:52;;;;;;;3.92;2.13;;;;;;;15.71;100.00;98727.09;4160795;28;20263;-85
2023/09/08 04:27:54;;;;;;;1.10;1.10;;;;;;;15.75;99.96;98732.91;4159748;28;21070;-83
2023/09/08 04:29:55;;;;;;;1.00;0.95;;;;;;;15.72;99.65;98733.47;4160697;28;20200;-84
2023/09/08 04:31:57;;;;;;;1.55;0.90;;;;;;;15.70;99.72;98733.72;4165958;28;20216;-84
2023/09/08 04:33:58;;;;;;;1.58;1.48;;;;;;;15.65;99.72;98739.28;4163881;28;20228;-84
2023/09/08 04:36:00;;;;;;;1.70;1.20;;;;;;;15.63;99.67;98735.94;4157610;28;20224;-83
2023/09/08 04:38:02;;;;;;;0.77;0.77;;;;;;;15.63;99.47;98735.94;4161498;28;20228;-84
2023/09/08 04:40:07;;;;;;;1.13;1.08;;;;;;;15.61;99.15;98738.16;4160274;28;21439;-83
2023/09/08 04:42:08;;;;;;;2.05;1.85;;;;;;;15.65;99.38;98744.78;4179338;28;20216;-84
2023/09/08 04:44:10;;;;;;;1.33;1.23;;;;;;;15.64;99.62;98742.28;4164969;28;20236;-83
2023/09/08 04:46:12;;;;;;;2.15;2.00;;;;;;;15.51;99.37;98749.19;4155218;28;20277;-84
2023/09/08 04:48:13;;;;;;;2.30;1.13;;;;;;;15.55;99.35;98744.78;4138964;28;20291;-83
2023/09/08 04:50:15;;;;;;;2.45;1.27;;;;;;;15.59;98.99;98753.31;4149031;28;21488;-85
2023/09/08 04:52:18;;;;;;;1.33;1.23;;;;;;;15.58;99.02;98754.44;4160228;28;20204;-83
2023/09/08 04:54:19;;;;;;;1.55;0.95;;;;;;;15.58;98.78;98749.75;4159662;28;20232;-84
2023/09/08 04:56:21;;;;;;;0.90;0.90;;;;;;;15.57;98.62;98748.06;4163359;28;21652;-84
2023/09/08 04:58:23;;;;;;;2.13;1.23;;;;;;;15.57;98.70;98748.06;4163552;28;20215;-83
2023/09/08 05:00:24;;;;;;;2.13;1.30;;;;;;;15.48;98.84;98749.75;4156792;28;20248;-84
2023/09/08 05:02:26;;;;;;;0.80;0.80;;;;;;;15.49;98.57;98750.59;4161441;28;20208;-87
2023/09/08 05:04:28;;;;;;;1.08;0.98;;;;;;;15.47;99.25;98752.78;4141305;28;20288;-85
2023/09/08 05:06:30;;;;;;;1.83;1.70;;;;;;;15.35;99.53;98755.81;4175516;28;20204;-84
2023/09/08 05:08:32;;;;;;;1.15;1.05;;;;;;;15.29;99.87;98745.84;4150477;28;20247;-84
2023/09/08 05:10:34;;;;;;;2.60;1.70;;;;;;;15.31;100.00;98743.63;4159427;28;20585;-83
2023/09/08 05:12:35;;;;;;;1.33;1.23;;;;;;;15.31;99.81;98754.66;4146069;28;20205;-84
2023/09/08 05:14:37;;;;;;;1.45;1.38;;;;;;;15.42;100.00;98750.84;4137541;28;20253;-84
2023/09/08 05:16:49;;;;;;;3.15;1.88;;;;;;;15.40;100.00;98758.56;4155389;28;20271;-84
2023/09/08 05:18:51;;;;;;;2.17;1.35;;;;;;;15.35;100.00;98758.56;4147905;28;20211;-84
2023/09/08 05:20:53;;;;;;;1.58;1.40;;;;;;;15.34;100.00;98754.16;4170318;28;20238;-84
2023/09/08 05:22:54;;;;;;;1.48;1.38;;;;;;;15.31;100.00;98757.41;4157671;28;20324;-86
2023/09/08 05:24:56;;;;;;;1.60;1.10;;;;;;;15.37;100.00;98761.88;4153032;28;20235;-84
2023/09/08 05:26:58;;;;;;;1.35;1.30;;;;;;;15.36;100.00;98762.97;4149618;28;20211;-85
2023/09/08 05:28:59;;;;;;;1.65;1.55;;;;;;;15.39;99.95;98762.44;4152951;28;20256;-84
2023/09/08 05:31:01;;;;;;;0.98;0.98;;;;;;;15.44;100.00;98767.94;4160161;28;20223;-84
2023/09/08 05:33:03;;;;;;;1.48;1.38;;;;;;;15.42;100.00;98767.41;4175264;28;20208;-84
2023/09/08 05:35:05;;;;;;;1.65;1.55;;;;;;;15.30;100.00;98768.75;4156073;28;20875;-84
2023/09/08 05:37:06;;;;;;;1.05;0.95;;;;;;;15.40;100.00;98764.09;4158395;28;20208;-85
2023/09/08 05:39:08;;;;;;;3.55;1.83;;;;;;;15.51;100.00;98771.25;4142295;28;20707;-85
2023/09/08 05:41:10;;;;;;;2.85;1.65;;;;;;;15.53;100.00;98769.06;4159489;28;20233;-85
2023/09/08 05:43:11;;;;;;;1.73;1.63;;;;;;;15.70;100.00;98766.84;4146857;28;20687;-84
2023/09/08 05:45:13;;;;;;;1.42;1.33;;;;;;;15.83;100.00;98773.75;4161792;28;20320;-84
2023/09/08 05:47:14;;;;;;;2.53;2.30;;;;;;;15.87;100.00;98774.81;4158269;28;20750;-84
2023/09/08 05:49:17;;;;;;;29.25;2.58;;;;;;;16.09;100.00;98773.41;4139859;28;20637;-84
2023/09/08 05:51:19;;;;;;;9.18;1.85;;;;;;;16.30;100.00;98769.50;4157253;28;20236;-84
2023/09/08 05:53:21;;;;;;;10.18;4.28;;;;;;;16.42;100.00;98783.84;4145629;28;20251;-83
2023/09/08 05:55:22;;;;;;;14.05;3.47;;;;;;;16.89;100.00;98783.41;4158280;28;20227;-84
2023/09/08 05:57:24;;;;;;;2.75;2.13;;;;;;;16.84;100.00;98780.66;4125667;28;20753;-84
2023/09/08 05:59:25;;;;;;;3.08;2.88;;;;;;;16.65;100.00;98783.25;4130564;28;20723;-84
2023/09/08 06:01:27;;;;;;;31.70;2.42;;;;;;;16.87;100.00;98789.22;4161965;28;20307;-84
2023/09/08 06:03:29;;;;;;;12.40;1.40;;;;;;;17.05;100.00;98783.03;4175094;28;20233;-84
2023/09/08 06:05:31;;;;;;;3.03;2.72;;;;;;;17.37;100.00;98783.41;4153765;28;20759;-85
2023/09/08 06:07:33;;;;;;;3.05;1.70;;;;;;;17.79;100.00;98789.19;4170843;28;20200;-85
2023/09/08 06:09:37;;;;;;;0.93;0.93;;;;;;;18.19;97.34;98794.34;4154715;28;20567;-84
2023/09/08 06:11:39;;;;;;;1.95;1.85;;;;;;;18.30;94.85;98782.91;4159032;28;20216;-85
2023/09/08 06:13:42;;;;;;;3.15;2.50;;;;;;;18.48;94.91;98784.94;4155075;28;20205;-85
2023/09/08 06:15:43;;;;;;;5.15;1.63;;;;;;;18.67;91.63;98788.59;4158909;28;20217;-84
2023/09/08 06:17:46;;;;;;;2.95;1.90;;;;;;;18.86;90.67;98783.06;4156399;28;20255;-84
2023/09/08 06:19:48;;;;;;;2.03;1.83;;;;;;;18.95;89.10;98786.84;4177311;28;20204;-84
2023/09/08 06:21:50;;;;;;;1.48;1.38;;;;;;;18.86;87.60;98791.41;4150170;28;20256;-84
2023/09/08 06:23:51;;;;;;;1.52;1.42;;;;;;;18.98;90.02;98797.34;4166454;28;20287;-84
2023/09/08 06:25:59;;;;;;;2.60;1.17;;;;;;;19.00;89.20;98795.94;4153436;28;20255;-83
2023/09/08 06:28:01;;;;;;;5.63;2.28;;;;;;;19.23;88.71;98788.69;4153509;28;20212;-84
2023/09/08 06:30:03;;;;;;;1.23;1.23;;;;;;;18.92;89.22;98788.25;4154667;28;20220;-84
2023/09/08 06:32:07;;;;;;;2.72;1.77;;;;;;;19.45;85.71;98786.16;4169020;28;20730;-86
2023/09/08 06:34:13;;;;;;;4.10;1.77;;;;;;;19.30;87.38;98794.69;4156780;28;20306;-84
2023/09/08 06:36:15;;;;;;;2.97;1.60;;;;;;;19.79;88.34;98790.31;4156273;28;20216;-85
2023/09/08 06:38:16;;;;;;;1.70;1.40;;;;;;;19.58;87.17;98796.50;4142243;28;20215;-85
2023/09/08 06:40:18;;;;;;;15.38;1.45;;;;;;;19.56;85.92;98794.03;4136417;28;20664;-84
2023/09/08 06:42:22;;;;;;;0.90;0.90;;;;;;;19.51;85.34;98788.53;4153849;28;20212;-84
2023/09/08 06:44:25;;;;;;;1.10;0.93;;;;;;;19.50;85.76;98789.69;4136941;28;20239;-84
2023/09/08 06:46:27;;;;;;;1.90;1.70;;;;;;;19.57;85.01;98790.13;4160810;28;20264;-85
2023/09/08 06:48:29;;;;;;;2.08;1.25;;;;;;;19.60;87.32;98788.69;4138569;28;20330;-83
2023/09/08 06:50:30;;;;;;;1.67;1.48;;;;;;;20.18;84.94;98788.00;4160491;28;20219;-84
2023/09/08 06:52:32;;;;;;;1.98;1.20;;;;;;;20.03;83.84;98787.41;4162104;28;20213;-84
2023/09/08 06:54:34;;;;;;;1.13;1.08;;;;;;;20.25;82.40;98791.19;4177503;28;20251;-84
2023/09/08 06:56:37;;;;;;;2.08;1.42;;;;;;;20.46;81.10;98786.09;4161706;28;20219;-84
2023/09/08 06:58:38;;;;;;;5.38;1.40;;;;;;;21.20;79.67;98780.13;4161504;28;20212;-84
2023/09/08 07:00:40;;;;;;;2.53;2.33;;;;;;;21.38;76.93;98793.91;4162959;28;20243;-84
2023/09/08 07:02:41;;;;;;;2.00;1.75;;;;;;;21.98;75.55;98797.22;4162872;28;20208;-84
2023/09/08 07:04:43;;;;;;;1.92;1.38;;;;;;;22.28;73.61;98796.44;4158179;28;20228;-84
2023/09/08 07:06:46;;;;;;;1.33;1.33;;;;;;;22.24;73.32;98795.44;4156733;28;20216;-83
2023/09/08 07:08:51;;;;;;;3.33;1.73;;;;;;;21.81;73.92;98797.94;4161449;28;20220;-84
2023/09/08 07:10:53;;;;;;;1.08;1.08;;;;;;;21.40;78.21;98794.44;4176189;28;20200;-85
2023/09/08 07:12:55;;;;;;;1.00;0.80;;;;;;;22.70;70.95;98795.88;4158658;28;20204;-84
2023/09/08 07:14:58;;;;;;;1.33;1.15;;;;;;;23.47;67.56;98796.94;4163793;28;20522;-84
2023/09/08 07:17:01;;;;;;;7.13;2.17;;;;;;;23.67;68.62;98793.50;4161903;28;20212;-83
2023/09/08 07:19:05;;;;;;;1.88;1.05;;;;;;;23.58;67.74;98796.28;4162886;28;21119;-85
2023/09/08 07:21:06;;;;;;;1.38;1.27;;;;;;;23.52;67.05;98791.19;4163132;28;20224;-84
2023/09/08 07:23:08;;;;;;;2.50;1.23;;;;;;;24.68;63.43;98801.81;4153396;28;20247;-84
2023/09/08 07:25:10;;;;;;;1.52;1.17;;;;;;;23.42;66.27;98797.09;4148218;28;20239;-85
2023/09/08 07:27:14;;;;;;;1.67;1.58;;;;;;;24.86;62.84;98796.97;4160936;28;20689;-84
2023/09/08 07:29:16;;;;;;;1.17;1.10;;;;;;;24.66;64.26;98804.13;4161180;28;20215;-84
2023/09/08 07:31:17;;;;;;;2.03;1.65;;;;;;;24.38;65.80;98797.25;4160365;28;20204;-85
2023/09/08 07:33:19;;;;;;;1.55;1.45;;;;;;;25.29;63.40;98795.63;4158012;28;20658;-84
2023/09/08 07:35:23;;;;;;;1.85;0.82;;;;;;;25.63;61.04;98792.59;4161801;28;20224;-84
2023/09/08 07:37:25;;;;;;;1.25;1.23;;;;;;;25.72;60.43;98801.75;4163354;28;20238;-83
2023/09/08 07:39:26;;;;;;;11.50;1.27;;;;;;;25.56;61.00;98799.88;4154061;28;22961;-84
2023/09/08 07:41:28;;;;;;;1.58;0.95;;;;;;;26.21;60.27;98800.84;4160559;28;20251;-85
2023/09/08 07:43:29;;;;;;;1.73;1.63;;;;;;;26.26;58.84;98797.81;4162050;28;20261;-84
2023/09/08 07:45:31;;;;;;;1.45;1.20;;;;;;;26.08;59.48;98807.59;4156586;28;20240;-84
2023/09/08 07:47:33;;;;;;;1.02;0.93;;;;;;;25.47;60.26;98802.75;4160308;28;20204;-85
2023/09/08 07:49:34;;;;;;;2.17;1.20;;;;;;;24.47;62.57;98795.25;4153515;28;20204;-84
2023/09/08 07:51:36;;;;;;;2.85;1.25;;;;;;;25.61;61.01;98800.53;4158256;28;20207;-84
2023/09/08 07:53:37;;;;;;;1.92;1.23;;;;;;;25.40;60.74;98796.03;4155894;28;20796;-85
2023/09/08 07:55:39;;;;;;;4.80;1.45;;;;;;;25.61;61.54;98792.13;4158394;28;20227;-85
2023/09/08 07:57:42;;;;;;;1.35;1.00;;;;;;;26.18;60.54;98800.72;4155167;28;20208;-85
2023/09/08 07:59:44;;;;;;;0.93;0.57;;;;;;;25.28;60.55;98805.19;4158172;28;20284;-85
2023/09/08 08:01:45;;;;;;;3.13;0.90;;;;;;;24.18;63.67;98800.75;4154505;28;20233;-84
2023/09/08 08:03:47;;;;;;;0.90;0.85;;;;;;;23.92;65.31;98797.16;4155026;28;20231;-84
2023/09/08 08:05:50;;;;;;;1.15;1.05;;;;;;;24.16;66.21;98799.44;4139286;28;20204;-84
2023/09/08 08:07:52;;;;;;;1.17;1.08;;;;;;;25.17;63.65;98792.69;4177101;28;20207;-85
2023/09/08 08:09:54;;;;;;;7.20;1.20;;;;;;;26.12;59.88;98794.50;4161270;28;20207;-84
2023/09/08 08:11:55;;;;;;;2.05;1.88;;;;;;;26.66;59.04;98793.28;4156963;28;20209;-84
2023/09/08 08:13:57;;;;;;;1.23;1.00;;;;;;;26.54;59.10;98798.06;4142191;28;20707;-87
2023/09/08 08:15:59;;;;;;;0.75;0.75;;;;;;;27.20;57.83;98788.34;4144759;28;20262;-85
2023/09/08 08:18:04;;;;;;;1.33;1.05;;;;;;;27.59;57.22;98785.59;4143580;28;20225;-85
2023/09/08 08:20:08;;;;;;;1.10;0.80;;;;;;;27.50;56.66;98793.34;4182495;28;20207;-84
2023/09/08 08:22:10;;;;;;;0.77;0.75;;;;;;;27.64;57.18;98793.78;4163285;28;20220;-85
2023/09/08 08:24:19;;;;;;;1.33;0.80;;;;;;;27.85;55.76;98783.22;4174964;28;20223;-86
2023/09/08 08:26:21;;;;;;;1.23;1.13;;;;;;;27.77;56.26;98792.63;4156804;28;20211;-84
2023/09/08 08:28:23;;;;;;;1.13;0.95;;;;;;;27.87;55.49;98792.13;4172812;28;20243;-84
2023/09/08 08:30:25;;;;;;;1.02;0.90;;;;;;;28.34;54.07;98786.66;4163827;28;20208;-83
2023/09/08 08:32:27;;;;;;;1.02;0.93;;;;;;;28.37;54.04;98786.78;4163760;28;20293;-83
2023/09/08 08:34:29;;;;;;;1.58;0.82;;;;;;;27.53;56.72;98789.81;4160387;28;20243;-84
2023/09/08 08:36:30;;;;;;;1.35;1.25;;;;;;;27.98;54.18;98787.63;4160273;28;20207;-83
2023/09/08 08:38:32;;;;;;;2.25;1.25;;;;;;;27.66;55.41;98787.81;4162077;28;20299;-84
2023/09/08 08:40:38;;;;;;;0.80;0.80;;;;;;;28.21;54.58;98787.88;4161944;28;20342;-84
2023/09/08 08:42:41;;;;;;;1.08;0.77;;;;;;;28.54;54.37;98786.47;4162558;28;20228;-85
2023/09/08 08:44:43;;;;;;;0.98;0.93;;;;;;;28.57;53.85;98776.44;4157165;28;20236;-86
2023/09/08 08:46:46;;;;;;;1.02;0.73;;;;;;;28.52;53.78;98786.00;4157427;28;20211;-85
2023/09/08 08:48:51;;;;;;;1.52;1.15;;;;;;;27.78;53.25;98785.81;4140828;28;20232;-84
2023/09/08 08:50:53;;;;;;;0.90;0.88;;;;;;;26.24;56.10;98783.31;4157439;28;20670;-86
2023/09/08 08:52:54;;;;;;;1.30;1.20;;;;;;;26.13;57.24;98781.28;4167350;28;20205;-85
2023/09/08 08:54:56;;;;;;;2.20;1.33;;;;;;;26.81;56.90;98791.78;4139765;28;20754;-88
2023/09/08 08:56:59;;;;;;;2.55;0.95;;;;;;;27.22;58.37;98785.97;4158136;28;20209;-83
2023/09/08 08:59:01;;;;;;;1.00;1.00;;;;;;;27.73;55.41;98777.56;4159922;28;20193;-83
2023/09/08 09:01:04;;;;;;;5.25;1.17;;;;;;;28.37;54.82;98788.78;4142902;28;20208;-83
2023/09/08 09:03:07;;;;;;;5.28;1.20;;;;;;;28.58;54.52;98784.53;4153286;28;20402;-84
2023/09/08 09:05:16;;;;;;;1.92;1.30;;;;;;;29.19;52.43;98785.78;4155495;28;20228;-83
2023/09/08 09:07:18;;;;;;;1.48;1.05;;;;;;;29.43;52.29;98782.75;4176008;28;20214;-83
2023/09/08 09:09:20;;;;;;;1.10;1.02;;;;;;;29.24;52.37;98779.88;4175980;28;20215;-83
2023/09/08 09:11:22;;;;;;;1.52;1.08;;;;;;;29.03;52.91;98776.53;4154359;28;20196;-84
2023/09/08 09:13:24;;;;;;;0.95;0.85;;;;;;;28.38;52.84;98784.81;4160136;28;20682;-84
2023/09/08 09:15:32;;;;;;;0.73;0.68;;;;;;;28.64;53.71;98782.31;4161209;28;20216;-85
2023/09/08 09:17:35;;;;;;;0.93;0.93;;;;;;;28.81;52.31;98782.78;4152557;28;20242;-84
2023/09/08 09:19:37;;;;;;;1.20;1.10;;;;;;;27.82;53.68;98775.50;4154838;28;20209;-83
2023/09/08 09:21:43;;;;;;;1.05;0.95;;;;;;;28.28;56.18;98785.28;4173413;28;20219;-84
2023/09/08 09:23:45;;;;;;;2.75;1.10;;;;;;;28.28;53.23;98774.84;4139117;28;20295;-84
2023/09/08 09:25:46;;;;;;;1.00;0.90;;;;;;;27.91;53.75;98776.16;4153948;28;20212;-85
2023/09/08 09:27:52;;;;;;;1.33;0.75;;;;;;;28.97;53.07;98791.25;4152661;28;20211;-85
2023/09/08 09:29:54;;;;;;;1.42;1.17;;;;;;;29.24;52.77;98774.22;4153120;28;20208;-84
2023/09/08 09:32:10;;;;;;;1.20;0.80;;;;;;;28.16;53.08;98776.88;4160183;28;21998;-84
2023/09/08 09:34:12;;;;;;;6.90;1.10;;;;;;;28.45;53.44;98768.91;4158658;28;20223;-84